createdAt,value
2022-11-29T00:00:44.950Z,1009.57
2022-11-29T00:01:45.013Z,1009.61
2022-11-29T00:02:45.044Z,1009.66
2022-11-29T00:03:44.930Z,1009.63
2022-11-29T00:04:45.163Z,1009.64
2022-11-29T00:05:44.919Z,1009.68
2022-11-29T00:06:44.901Z,1009.65
2022-11-29T00:07:44.946Z,1009.65
2022-11-29T00:08:44.900Z,1009.71
2022-11-29T00:09:44.848Z,1009.69
2022-11-29T00:10:44.834Z,1009.70
2022-11-29T00:11:44.830Z,1009.67
2022-11-29T00:12:44.851Z,1009.67
2022-11-29T00:13:44.852Z,1009.63
2022-11-29T00:14:44.951Z,1009.70
2022-11-29T00:15:44.786Z,1009.64
2022-11-29T00:16:44.813Z,1009.66
2022-11-29T00:17:44.814Z,1009.63
2022-11-29T00:18:44.749Z,1009.65
2022-11-29T00:19:44.736Z,1009.66
2022-11-29T00:20:44.732Z,1009.63
2022-11-29T00:21:44.736Z,1009.62
2022-11-29T00:22:44.706Z,1009.64
2022-11-29T00:23:44.735Z,1009.64
2022-11-29T00:24:44.901Z,1009.65
2022-11-29T00:25:44.684Z,1009.65
2022-11-29T00:26:44.679Z,1009.65
2022-11-29T00:27:44.645Z,1009.67
2022-11-29T00:28:44.682Z,1009.66
2022-11-29T00:29:44.654Z,1009.66
2022-11-29T00:30:44.716Z,1009.66
2022-11-29T00:31:44.615Z,1009.68
2022-11-29T00:32:44.589Z,1009.65
2022-11-29T00:33:44.613Z,1009.65
2022-11-29T00:34:44.741Z,1009.66
2022-11-29T00:35:44.571Z,1009.67
2022-11-29T00:36:44.552Z,1009.69
2022-11-29T00:37:44.557Z,1009.61
2022-11-29T00:38:44.578Z,1009.64
2022-11-29T00:39:44.542Z,1009.63
2022-11-29T00:40:44.516Z,1009.58
2022-11-29T00:41:44.495Z,1009.63
2022-11-29T00:42:44.501Z,1009.62
2022-11-29T00:43:44.524Z,1009.62
2022-11-29T00:44:44.730Z,1009.62
2022-11-29T00:45:44.510Z,1009.62
2022-11-29T00:46:44.455Z,1009.60
2022-11-29T00:47:44.445Z,1009.68
2022-11-29T00:48:44.461Z,1009.69
2022-11-29T00:49:44.399Z,1009.65
2022-11-29T00:50:44.390Z,1009.65
2022-11-29T00:51:44.382Z,1009.62
2022-11-29T00:52:44.373Z,1009.62
2022-11-29T00:53:44.413Z,1009.62
2022-11-29T00:54:44.541Z,1009.58
2022-11-29T00:55:44.356Z,1009.54
2022-11-29T00:56:44.331Z,1009.55
2022-11-29T00:57:44.312Z,1009.52
2022-11-29T00:58:44.334Z,1009.52
2022-11-29T00:59:44.301Z,1009.54
2022-11-29T01:00:44.303Z,1009.52
2022-11-29T01:01:44.334Z,1009.49
2022-11-29T01:02:44.326Z,1009.49
2022-11-29T01:03:44.312Z,1009.52
2022-11-29T01:04:44.618Z,1009.55
2022-11-29T01:05:44.254Z,1009.50
2022-11-29T01:06:44.214Z,1009.51
2022-11-29T01:07:44.276Z,1009.55
2022-11-29T01:08:44.275Z,1009.55
2022-11-29T01:09:44.193Z,1009.56
2022-11-29T01:10:44.181Z,1009.55
2022-11-29T01:11:44.171Z,1009.55
2022-11-29T01:12:44.162Z,1009.56
2022-11-29T01:13:44.156Z,1009.55
2022-11-29T01:14:44.554Z,1009.57
2022-11-29T01:15:44.149Z,1009.51
2022-11-29T01:16:44.194Z,1009.54
2022-11-29T01:17:44.094Z,1009.53
2022-11-29T01:18:44.118Z,1009.51
2022-11-29T01:19:49.308Z,1009.54
2022-11-29T01:20:45.071Z,1009.56
2022-11-29T01:21:44.048Z,1009.57
2022-11-29T01:22:44.052Z,1009.57
2022-11-29T01:23:44.024Z,1009.57
2022-11-29T01:24:44.376Z,1009.59
2022-11-29T01:25:44.004Z,1009.57
2022-11-29T01:26:44.013Z,1009.61
2022-11-29T01:27:44.002Z,1009.62
2022-11-29T01:28:43.980Z,1009.54
2022-11-29T01:29:43.992Z,1009.60
2022-11-29T01:30:44.029Z,1009.61
2022-11-29T01:31:43.936Z,1009.58
2022-11-29T01:32:43.933Z,1009.62
2022-11-29T01:33:43.922Z,1009.59
2022-11-29T01:34:44.249Z,1009.58
2022-11-29T01:35:43.893Z,1009.55
2022-11-29T01:36:43.880Z,1009.54
2022-11-29T01:37:43.880Z,1009.55
2022-11-29T01:38:43.853Z,1009.58
2022-11-29T01:39:43.873Z,1009.60
2022-11-29T01:40:43.835Z,1009.59
2022-11-29T01:41:43.834Z,1009.55
2022-11-29T01:42:43.814Z,1009.57
2022-11-29T01:43:43.814Z,1009.58
2022-11-29T01:44:43.995Z,1009.59
2022-11-29T01:45:43.851Z,1009.64
2022-11-29T01:46:43.784Z,1009.59
2022-11-29T01:47:43.756Z,1009.54
2022-11-29T01:48:43.755Z,1009.59
2022-11-29T01:49:43.770Z,1009.60
2022-11-29T01:50:43.742Z,1009.63
2022-11-29T01:51:43.718Z,1009.59
2022-11-29T01:52:43.729Z,1009.57
2022-11-29T01:53:43.710Z,1009.61
2022-11-29T01:54:44.000Z,1009.54
2022-11-29T01:55:43.692Z,1009.63
2022-11-29T01:56:43.650Z,1009.60
2022-11-29T01:57:43.650Z,1009.61
2022-11-29T01:58:43.658Z,1009.56
2022-11-29T01:59:43.657Z,1009.55
2022-11-29T02:00:43.621Z,1009.60
2022-11-29T02:01:43.663Z,1009.52
2022-11-29T02:02:43.688Z,1009.56
2022-11-29T02:03:43.574Z,1009.55
2022-11-29T02:04:43.955Z,1009.53
2022-11-29T02:05:43.567Z,1009.51
2022-11-29T02:06:43.567Z,1009.46
2022-11-29T02:07:43.586Z,1009.54
2022-11-29T02:08:43.534Z,1009.55
2022-11-29T02:09:43.541Z,1009.52
2022-11-29T02:10:43.500Z,1009.49
2022-11-29T02:11:43.503Z,1009.55
2022-11-29T02:12:43.487Z,1009.52
2022-11-29T02:13:43.469Z,1009.49
2022-11-29T02:14:43.797Z,1009.50
2022-11-29T02:15:43.502Z,1009.54
2022-11-29T02:16:43.439Z,1009.51
2022-11-29T02:17:43.412Z,1009.49
2022-11-29T02:18:43.420Z,1009.51
2022-11-29T02:19:43.446Z,1009.55
2022-11-29T02:20:43.411Z,1009.55
2022-11-29T02:21:43.369Z,1009.56
2022-11-29T02:22:43.389Z,1009.57
2022-11-29T02:23:43.352Z,1009.53
2022-11-29T02:24:43.879Z,1009.57
2022-11-29T02:25:43.324Z,1009.59
2022-11-29T02:26:43.315Z,1009.57
2022-11-29T02:27:43.301Z,1009.53
2022-11-29T02:28:43.288Z,1009.56
2022-11-29T02:29:43.318Z,1009.60
2022-11-29T02:30:43.321Z,1009.63
2022-11-29T02:31:43.274Z,1009.59
2022-11-29T02:32:43.265Z,1009.64
2022-11-29T02:33:43.232Z,1009.66
2022-11-29T02:34:43.736Z,1009.62
2022-11-29T02:35:43.209Z,1009.68
2022-11-29T02:36:43.222Z,1009.62
2022-11-29T02:37:43.188Z,1009.63
2022-11-29T02:38:43.198Z,1009.69
2022-11-29T02:39:43.221Z,1009.65
2022-11-29T02:40:43.154Z,1009.66
2022-11-29T02:41:43.155Z,1009.68
2022-11-29T02:42:43.165Z,1009.68
2022-11-29T02:43:43.136Z,1009.68
2022-11-29T02:44:43.422Z,1009.65
2022-11-29T02:45:43.191Z,1009.68
2022-11-29T02:46:43.092Z,1009.65
2022-11-29T02:47:43.068Z,1009.69
2022-11-29T02:48:43.075Z,1009.72
2022-11-29T02:49:43.048Z,1009.74
2022-11-29T02:50:43.085Z,1009.71
2022-11-29T02:51:43.026Z,1009.70
2022-11-29T02:52:43.046Z,1009.70
2022-11-29T02:53:43.008Z,1009.67
2022-11-29T02:54:43.331Z,1009.74
2022-11-29T02:55:43.010Z,1009.72
2022-11-29T02:56:42.993Z,1009.70
2022-11-29T02:57:42.974Z,1009.69
2022-11-29T02:58:42.964Z,1009.68
2022-11-29T02:59:42.929Z,1009.67
2022-11-29T03:00:42.965Z,1009.69
2022-11-29T03:01:42.996Z,1009.72
2022-11-29T03:02:42.959Z,1009.67
2022-11-29T03:03:42.912Z,1009.68
2022-11-29T03:04:43.157Z,1009.71
2022-11-29T03:05:42.927Z,1009.71
2022-11-29T03:06:42.878Z,1009.69
2022-11-29T03:07:42.875Z,1009.72
2022-11-29T03:08:42.857Z,1009.70
2022-11-29T03:09:42.832Z,1009.73
2022-11-29T03:10:42.864Z,1009.74
2022-11-29T03:11:42.808Z,1009.75
2022-11-29T03:12:42.809Z,1009.77
2022-11-29T03:13:42.780Z,1009.76
2022-11-29T03:14:43.022Z,1009.81
2022-11-29T03:15:42.832Z,1009.82
2022-11-29T03:16:43.445Z,1009.80
2022-11-29T03:17:42.763Z,1009.84
2022-11-29T03:18:42.740Z,1009.78
2022-11-29T03:19:42.751Z,1009.82
2022-11-29T03:20:42.745Z,1009.86
2022-11-29T03:21:42.714Z,1009.86
2022-11-29T03:22:42.690Z,1009.92
2022-11-29T03:23:42.672Z,1009.84
2022-11-29T03:24:42.985Z,1009.88
2022-11-29T03:25:42.699Z,1009.86
2022-11-29T03:26:42.656Z,1009.88
2022-11-29T03:27:42.656Z,1009.86
2022-11-29T03:28:42.613Z,1009.85
2022-11-29T03:29:42.643Z,1009.84
2022-11-29T03:30:42.685Z,1009.89
2022-11-29T03:31:42.585Z,1009.93
2022-11-29T03:32:42.580Z,1009.89
2022-11-29T03:33:42.549Z,1009.91
2022-11-29T03:34:42.697Z,1009.93
2022-11-29T03:35:42.560Z,1009.93
2022-11-29T03:36:42.543Z,1009.94
2022-11-29T03:37:42.518Z,1009.91
2022-11-29T03:38:42.518Z,1009.91
2022-11-29T03:39:42.495Z,1009.92
2022-11-29T03:40:42.527Z,1009.91
2022-11-29T03:41:42.470Z,1009.94
2022-11-29T03:42:42.491Z,1009.93
2022-11-29T03:43:42.452Z,1009.97
2022-11-29T03:44:42.719Z,1010.00
2022-11-29T03:45:42.456Z,1009.99
2022-11-29T03:46:42.505Z,1010.01
2022-11-29T03:47:42.411Z,1009.98
2022-11-29T03:48:42.390Z,1009.97
2022-11-29T03:49:42.391Z,1009.99
2022-11-29T03:50:42.425Z,1009.95
2022-11-29T03:51:42.372Z,1009.96
2022-11-29T03:52:42.366Z,1010.00
2022-11-29T03:53:42.335Z,1010.02
2022-11-29T03:54:42.821Z,1010.01
2022-11-29T03:55:42.354Z,1009.97
2022-11-29T03:56:42.325Z,1010.00
2022-11-29T03:57:42.295Z,1009.95
2022-11-29T03:58:42.293Z,1009.97
2022-11-29T03:59:42.274Z,1009.99
2022-11-29T04:00:42.307Z,1009.95
2022-11-29T04:01:42.303Z,1009.98
2022-11-29T04:02:42.378Z,1009.93
2022-11-29T04:03:42.246Z,1009.93
2022-11-29T04:04:42.324Z,1009.97
2022-11-29T04:05:42.227Z,1009.95
2022-11-29T04:06:42.198Z,1009.96
2022-11-29T04:07:42.229Z,1009.91
2022-11-29T04:08:42.182Z,1009.92
2022-11-29T04:09:42.154Z,1009.92
2022-11-29T04:10:42.183Z,1009.96
2022-11-29T04:11:42.133Z,1009.96
2022-11-29T04:12:42.144Z,1009.99
2022-11-29T04:13:42.120Z,1009.99
2022-11-29T04:14:42.291Z,1010.00
2022-11-29T04:15:42.185Z,1010.00
2022-11-29T04:16:42.073Z,1010.02
2022-11-29T04:17:42.087Z,1010.04
2022-11-29T04:18:42.058Z,1010.04
2022-11-29T04:19:42.065Z,1010.06
2022-11-29T04:20:46.669Z,1010.06
2022-11-29T04:21:43.048Z,1010.05
2022-11-29T04:22:42.020Z,1010.08
2022-11-29T04:23:42.024Z,1010.09
2022-11-29T04:24:42.216Z,1010.11
2022-11-29T04:25:42.046Z,1010.06
2022-11-29T04:26:41.994Z,1010.12
2022-11-29T04:27:41.966Z,1010.10
2022-11-29T04:28:41.953Z,1010.11
2022-11-29T04:29:41.932Z,1010.14
2022-11-29T04:30:41.970Z,1010.11
2022-11-29T04:31:41.929Z,1010.12
2022-11-29T04:32:41.908Z,1010.10
2022-11-29T04:33:41.907Z,1010.16
2022-11-29T04:34:42.330Z,1010.14
2022-11-29T04:35:41.904Z,1010.16
2022-11-29T04:36:41.853Z,1010.18
2022-11-29T04:37:41.863Z,1010.15
2022-11-29T04:38:41.819Z,1010.14
2022-11-29T04:39:41.821Z,1010.14
2022-11-29T04:40:41.837Z,1010.16
2022-11-29T04:41:41.807Z,1010.16
2022-11-29T04:42:41.794Z,1010.15
2022-11-29T04:43:41.772Z,1010.14
2022-11-29T04:44:41.874Z,1010.14
2022-11-29T04:45:41.805Z,1010.20
2022-11-29T04:46:41.790Z,1010.20
2022-11-29T04:47:41.737Z,1010.21
2022-11-29T04:48:41.721Z,1010.19
2022-11-29T04:49:41.722Z,1010.19
2022-11-29T04:50:41.730Z,1010.23
2022-11-29T04:51:41.713Z,1010.21
2022-11-29T04:52:41.695Z,1010.26
2022-11-29T04:53:41.671Z,1010.25
2022-11-29T04:54:41.821Z,1010.24
2022-11-29T04:55:41.691Z,1010.30
2022-11-29T04:56:41.642Z,1010.25
2022-11-29T04:57:41.645Z,1010.31
2022-11-29T04:58:41.629Z,1010.26
2022-11-29T04:59:41.603Z,1010.30
2022-11-29T05:00:41.631Z,1010.33
2022-11-29T05:01:41.612Z,1010.31
2022-11-29T05:02:41.630Z,1010.32
2022-11-29T05:03:41.562Z,1010.32
2022-11-29T05:04:41.541Z,1010.37
2022-11-29T05:05:41.545Z,1010.35
2022-11-29T05:06:41.567Z,1010.40
2022-11-29T05:07:41.570Z,1010.35
2022-11-29T05:08:41.496Z,1010.41
2022-11-29T05:09:41.506Z,1010.39
2022-11-29T05:10:41.493Z,1010.40
2022-11-29T05:11:41.490Z,1010.40
2022-11-29T05:12:41.455Z,1010.42
2022-11-29T05:13:41.437Z,1010.43
2022-11-29T05:14:41.522Z,1010.38
2022-11-29T05:15:41.487Z,1010.45
2022-11-29T05:16:41.450Z,1010.42
2022-11-29T05:17:41.399Z,1010.45
2022-11-29T05:18:41.397Z,1010.46
2022-11-29T05:19:41.384Z,1010.52
2022-11-29T05:20:41.350Z,1010.52
2022-11-29T05:21:41.397Z,1010.54
2022-11-29T05:22:41.351Z,1010.52
2022-11-29T05:23:41.359Z,1010.52
2022-11-29T05:24:41.374Z,1010.53
2022-11-29T05:25:41.332Z,1010.51
2022-11-29T05:26:41.328Z,1010.56
2022-11-29T05:27:41.293Z,1010.57
2022-11-29T05:28:41.304Z,1010.56
2022-11-29T05:29:41.267Z,1010.53
2022-11-29T05:30:41.280Z,1010.62
2022-11-29T05:31:41.292Z,1010.55
2022-11-29T05:32:41.253Z,1010.62
2022-11-29T05:33:41.257Z,1010.65
2022-11-29T05:34:41.198Z,1010.67
2022-11-29T05:35:41.214Z,1010.62
2022-11-29T05:36:41.217Z,1010.65
2022-11-29T05:37:41.175Z,1010.59
2022-11-29T05:38:41.169Z,1010.68
2022-11-29T05:39:41.140Z,1010.66
2022-11-29T05:40:41.149Z,1010.69
2022-11-29T05:41:41.162Z,1010.67
2022-11-29T05:42:41.196Z,1010.70
2022-11-29T05:43:41.091Z,1010.73
2022-11-29T05:44:41.089Z,1010.68
2022-11-29T05:45:41.079Z,1010.70
2022-11-29T05:46:41.108Z,1010.69
2022-11-29T05:47:41.093Z,1010.73
2022-11-29T05:48:41.060Z,1010.74
2022-11-29T05:49:41.034Z,1010.70
2022-11-29T05:50:41.035Z,1010.67
2022-11-29T05:51:41.025Z,1010.70
2022-11-29T05:52:41.042Z,1010.62
2022-11-29T05:53:40.979Z,1010.67
2022-11-29T05:54:40.974Z,1010.70
2022-11-29T05:55:40.991Z,1010.67
2022-11-29T05:56:40.952Z,1010.68
2022-11-29T05:57:40.967Z,1010.70
2022-11-29T05:58:40.969Z,1010.71
2022-11-29T05:59:40.939Z,1010.66
2022-11-29T06:00:40.920Z,1010.75
2022-11-29T06:01:40.919Z,1010.77
2022-11-29T06:02:40.978Z,1010.76
2022-11-29T06:03:40.874Z,1010.71
2022-11-29T06:04:40.893Z,1010.73
2022-11-29T06:05:40.868Z,1010.74
2022-11-29T06:06:40.838Z,1010.77
2022-11-29T06:07:40.915Z,1010.77
2022-11-29T06:08:40.823Z,1010.81
2022-11-29T06:09:40.825Z,1010.85
2022-11-29T06:10:40.807Z,1010.82
2022-11-29T06:11:40.795Z,1010.84
2022-11-29T06:12:40.837Z,1010.81
2022-11-29T06:13:40.766Z,1010.83
2022-11-29T06:14:40.755Z,1010.87
2022-11-29T06:15:40.743Z,1010.88
2022-11-29T06:16:40.724Z,1010.92
2022-11-29T06:17:40.736Z,1010.85
2022-11-29T06:18:40.703Z,1010.94
2022-11-29T06:19:40.704Z,1010.95
2022-11-29T06:20:40.709Z,1010.92
2022-11-29T06:21:40.684Z,1010.95
2022-11-29T06:22:40.714Z,1010.93
2022-11-29T06:23:40.665Z,1010.99
2022-11-29T06:24:40.663Z,1010.99
2022-11-29T06:25:40.651Z,1010.99
2022-11-29T06:26:40.617Z,1011.00
2022-11-29T06:27:40.634Z,1010.97
2022-11-29T06:28:40.640Z,1011.00
2022-11-29T06:29:40.573Z,1010.99
2022-11-29T06:30:40.576Z,1011.06
2022-11-29T06:31:40.614Z,1011.01
2022-11-29T06:32:40.596Z,1011.03
2022-11-29T06:33:40.531Z,1011.03
2022-11-29T06:34:40.534Z,1011.03
2022-11-29T06:35:40.519Z,1011.03
2022-11-29T06:36:40.509Z,1011.03
2022-11-29T06:37:40.529Z,1011.03
2022-11-29T06:38:40.480Z,1011.02
2022-11-29T06:39:40.502Z,1011.03
2022-11-29T06:40:40.470Z,1011.10
2022-11-29T06:41:40.473Z,1011.07
2022-11-29T06:42:40.518Z,1011.08
2022-11-29T06:43:40.446Z,1011.11
2022-11-29T06:44:40.419Z,1011.06
2022-11-29T06:45:40.404Z,1011.09
2022-11-29T06:46:40.460Z,1011.14
2022-11-29T06:47:40.379Z,1011.13
2022-11-29T06:48:40.399Z,1011.13
2022-11-29T06:49:40.361Z,1011.14
2022-11-29T06:50:40.344Z,1011.16
2022-11-29T06:51:40.407Z,1011.17
2022-11-29T06:52:40.323Z,1011.16
2022-11-29T06:53:40.338Z,1011.15
2022-11-29T06:54:40.302Z,1011.19
2022-11-29T06:55:40.312Z,1011.19
2022-11-29T06:56:40.998Z,1011.15
2022-11-29T06:57:40.281Z,1011.23
2022-11-29T06:58:40.320Z,1011.22
2022-11-29T06:59:40.241Z,1011.22
2022-11-29T07:00:40.292Z,1011.26
2022-11-29T07:01:40.314Z,1011.24
2022-11-29T07:02:40.224Z,1011.24
2022-11-29T07:03:40.256Z,1011.25
2022-11-29T07:04:45.677Z,1011.25
2022-11-29T07:05:41.166Z,1011.25
2022-11-29T07:06:40.186Z,1011.29
2022-11-29T07:07:40.213Z,1011.31
2022-11-29T07:08:40.186Z,1011.30
2022-11-29T07:09:40.147Z,1011.36
2022-11-29T07:10:40.167Z,1011.32
2022-11-29T07:11:40.144Z,1011.34
2022-11-29T07:12:40.122Z,1011.37
2022-11-29T07:13:40.113Z,1011.37
2022-11-29T07:14:40.109Z,1011.34
2022-11-29T07:15:40.070Z,1011.37
2022-11-29T07:16:40.123Z,1011.36
2022-11-29T07:17:40.038Z,1011.35
2022-11-29T07:18:40.082Z,1011.30
2022-11-29T07:19:40.025Z,1011.32
2022-11-29T07:20:40.005Z,1011.33
2022-11-29T07:21:39.984Z,1011.35
2022-11-29T07:22:39.992Z,1011.39
2022-11-29T07:23:40.028Z,1011.33
2022-11-29T07:24:39.968Z,1011.38
2022-11-29T07:25:39.965Z,1011.38
2022-11-29T07:26:39.943Z,1011.40
2022-11-29T07:27:39.937Z,1011.38
2022-11-29T07:28:39.972Z,1011.43
2022-11-29T07:29:39.942Z,1011.44
2022-11-29T07:30:39.906Z,1011.42
2022-11-29T07:31:39.931Z,1011.49
2022-11-29T07:32:39.906Z,1011.41
2022-11-29T07:33:39.855Z,1011.42
2022-11-29T07:34:39.926Z,1011.47
2022-11-29T07:35:39.855Z,1011.47
2022-11-29T07:36:39.840Z,1011.53
2022-11-29T07:37:39.833Z,1011.54
2022-11-29T07:38:39.831Z,1011.54
2022-11-29T07:39:39.828Z,1011.55
2022-11-29T07:40:39.789Z,1011.58
2022-11-29T07:41:39.781Z,1011.53
2022-11-29T07:42:39.785Z,1011.55
2022-11-29T07:43:39.763Z,1011.55
2022-11-29T07:44:39.816Z,1011.58
2022-11-29T07:45:39.742Z,1011.59
2022-11-29T07:46:39.761Z,1011.61
2022-11-29T07:47:39.712Z,1011.62
2022-11-29T07:48:39.702Z,1011.55
2022-11-29T07:49:39.731Z,1011.58
2022-11-29T07:50:39.703Z,1011.59
2022-11-29T07:51:39.681Z,1011.55
2022-11-29T07:52:39.659Z,1011.63
2022-11-29T07:53:39.638Z,1011.63
2022-11-29T07:54:39.652Z,1011.60
2022-11-29T07:55:39.669Z,1011.58
2022-11-29T07:56:39.596Z,1011.62
2022-11-29T07:57:39.601Z,1011.70
2022-11-29T07:58:39.678Z,1011.69
2022-11-29T07:59:39.640Z,1011.67
2022-11-29T08:00:39.616Z,1011.69
2022-11-29T08:01:39.576Z,1011.67
2022-11-29T08:02:39.617Z,1011.71
2022-11-29T08:03:39.564Z,1011.67
2022-11-29T08:04:39.541Z,1011.74
2022-11-29T08:05:39.561Z,1011.74
2022-11-29T08:06:39.493Z,1011.67
2022-11-29T08:07:39.501Z,1011.69
2022-11-29T08:08:43.963Z,1011.66
2022-11-29T08:09:40.464Z,1011.78
2022-11-29T08:10:39.485Z,1011.73
2022-11-29T08:11:39.449Z,1011.73
2022-11-29T08:12:39.456Z,1011.69
2022-11-29T08:13:39.415Z,1011.70
2022-11-29T08:14:39.403Z,1011.74
2022-11-29T08:15:39.418Z,1011.70
2022-11-29T08:16:39.470Z,1011.74
2022-11-29T08:17:39.389Z,1011.76
2022-11-29T08:18:39.350Z,1011.75
2022-11-29T08:19:39.380Z,1011.76
2022-11-29T08:20:39.386Z,1011.78
2022-11-29T08:21:39.340Z,1011.79
2022-11-29T08:22:39.316Z,1011.74
2022-11-29T08:23:39.277Z,1011.76
2022-11-29T08:24:39.288Z,1011.81
2022-11-29T08:25:39.309Z,1011.81
2022-11-29T08:26:39.279Z,1011.84
2022-11-29T08:27:39.265Z,1011.84
2022-11-29T08:28:39.259Z,1011.86
2022-11-29T08:29:39.255Z,1011.80
2022-11-29T08:30:39.267Z,1011.79
2022-11-29T08:31:39.295Z,1011.78
2022-11-29T08:32:39.206Z,1011.78
2022-11-29T08:33:39.195Z,1011.79
2022-11-29T08:34:39.205Z,1011.80
2022-11-29T08:35:39.222Z,1011.79
2022-11-29T08:36:39.161Z,1011.79
2022-11-29T08:37:39.147Z,1011.79
2022-11-29T08:38:39.155Z,1011.85
2022-11-29T08:39:39.128Z,1011.83
2022-11-29T08:40:39.187Z,1011.87
2022-11-29T08:41:39.128Z,1011.86
2022-11-29T08:42:39.079Z,1011.89
2022-11-29T08:43:39.090Z,1011.84
2022-11-29T08:44:39.087Z,1011.87
2022-11-29T08:45:39.106Z,1011.88
2022-11-29T08:46:39.066Z,1011.89
2022-11-29T08:47:39.057Z,1011.85
2022-11-29T08:48:39.036Z,1011.89
2022-11-29T08:49:39.008Z,1011.90
2022-11-29T08:50:39.043Z,1011.87
2022-11-29T08:51:39.006Z,1011.92
2022-11-29T08:52:39.010Z,1011.87
2022-11-29T08:53:38.995Z,1011.84
2022-11-29T08:54:38.972Z,1011.84
2022-11-29T08:55:38.961Z,1011.85
2022-11-29T08:57:40.979Z,1011.84
2022-11-29T08:58:38.939Z,1011.82
2022-11-29T08:59:38.906Z,1011.86
2022-11-29T09:00:39.186Z,1011.83
2022-11-29T09:01:38.956Z,1011.88
2022-11-29T09:02:38.914Z,1011.91
2022-11-29T09:03:38.843Z,1011.93
2022-11-29T09:04:38.866Z,1011.94
2022-11-29T09:05:38.893Z,1011.95
2022-11-29T09:06:38.826Z,1011.97
2022-11-29T09:07:38.845Z,1012.00
2022-11-29T09:08:38.804Z,1011.99
2022-11-29T09:09:38.780Z,1012.00
2022-11-29T09:10:38.827Z,1011.99
2022-11-29T09:11:38.758Z,1011.99
2022-11-29T09:12:38.737Z,1012.04
2022-11-29T09:13:38.750Z,1012.05
2022-11-29T09:14:38.732Z,1012.01
2022-11-29T09:15:38.781Z,1012.01
2022-11-29T09:16:38.804Z,1012.06
2022-11-29T09:17:38.713Z,1012.08
2022-11-29T09:18:38.693Z,1012.06
2022-11-29T09:19:38.691Z,1012.10
2022-11-29T09:20:38.725Z,1012.08
2022-11-29T09:21:38.659Z,1012.05
2022-11-29T09:22:38.664Z,1012.09
2022-11-29T09:23:38.646Z,1012.10
2022-11-29T09:24:38.634Z,1012.06
2022-11-29T09:25:38.644Z,1012.07
2022-11-29T09:26:38.583Z,1012.03
2022-11-29T09:27:38.590Z,1012.02
2022-11-29T09:28:38.569Z,1012.03
2022-11-29T09:29:38.571Z,1012.04
2022-11-29T09:30:38.637Z,1012.06
2022-11-29T09:31:38.579Z,1012.05
2022-11-29T09:32:38.544Z,1012.06
2022-11-29T09:33:38.522Z,1012.09
2022-11-29T09:34:38.533Z,1012.08
2022-11-29T09:35:38.544Z,1012.10
2022-11-29T09:36:38.492Z,1012.10
2022-11-29T09:37:38.469Z,1012.12
2022-11-29T09:38:38.492Z,1012.09
2022-11-29T09:39:38.458Z,1012.08
2022-11-29T09:40:38.485Z,1012.12
2022-11-29T09:41:38.432Z,1012.09
2022-11-29T09:42:38.417Z,1012.03
2022-11-29T09:43:38.402Z,1012.08
2022-11-29T09:44:38.373Z,1012.09
2022-11-29T09:45:38.455Z,1012.13
2022-11-29T09:46:38.385Z,1012.09
2022-11-29T09:47:38.368Z,1012.10
2022-11-29T09:48:38.344Z,1012.14
2022-11-29T09:49:38.331Z,1012.13
2022-11-29T09:50:38.402Z,1012.15
2022-11-29T09:51:42.759Z,1012.14
2022-11-29T09:52:39.315Z,1012.10
2022-11-29T09:53:38.305Z,1012.10
2022-11-29T09:54:38.272Z,1012.11
2022-11-29T09:55:38.319Z,1012.11
2022-11-29T09:56:38.277Z,1012.11
2022-11-29T09:57:38.267Z,1012.07
2022-11-29T09:58:38.220Z,1012.12
2022-11-29T09:59:38.204Z,1012.09
2022-11-29T10:00:38.258Z,1012.10
2022-11-29T10:01:38.252Z,1012.08
2022-11-29T10:02:38.210Z,1012.08
2022-11-29T10:03:38.193Z,1012.05
2022-11-29T10:04:38.154Z,1012.07
2022-11-29T10:05:38.203Z,1012.02
2022-11-29T10:06:38.173Z,1012.08
2022-11-29T10:07:38.191Z,1012.04
2022-11-29T10:08:38.141Z,1012.03
2022-11-29T10:09:38.108Z,1012.11
2022-11-29T10:10:38.136Z,1012.05
2022-11-29T10:11:38.100Z,1012.05
2022-11-29T10:12:38.087Z,1012.11
2022-11-29T10:13:38.079Z,1012.09
2022-11-29T10:14:38.067Z,1012.11
2022-11-29T10:15:38.090Z,1012.11
2022-11-29T10:16:38.099Z,1012.10
2022-11-29T10:17:38.021Z,1012.13
2022-11-29T10:18:38.020Z,1012.11
2022-11-29T10:19:38.007Z,1012.11
2022-11-29T10:20:42.498Z,1012.07
2022-11-29T10:21:38.977Z,1012.10
2022-11-29T10:22:37.975Z,1012.16
2022-11-29T10:23:37.946Z,1012.13
2022-11-29T10:24:37.970Z,1012.15
2022-11-29T10:25:37.986Z,1012.14
2022-11-29T10:26:37.907Z,1012.10
2022-11-29T10:27:37.909Z,1012.12
2022-11-29T10:28:37.898Z,1012.16
2022-11-29T10:29:37.885Z,1012.13
2022-11-29T10:30:37.903Z,1012.16
2022-11-29T10:31:37.890Z,1012.16
2022-11-29T10:32:37.856Z,1012.13
2022-11-29T10:33:37.844Z,1012.14
2022-11-29T10:34:37.825Z,1012.16
2022-11-29T10:35:37.817Z,1012.16
2022-11-29T10:36:37.838Z,1012.19
2022-11-29T10:37:37.798Z,1012.18
2022-11-29T10:38:37.809Z,1012.15
2022-11-29T10:39:37.764Z,1012.14
2022-11-29T10:40:37.780Z,1012.17
2022-11-29T10:41:37.782Z,1012.18
2022-11-29T10:42:37.712Z,1012.16
2022-11-29T10:43:37.741Z,1012.17
2022-11-29T10:44:37.739Z,1012.18
2022-11-29T10:45:37.844Z,1012.17
2022-11-29T10:46:37.750Z,1012.17
2022-11-29T10:47:37.738Z,1012.17
2022-11-29T10:48:37.676Z,1012.16
2022-11-29T10:49:37.651Z,1012.14
2022-11-29T10:50:37.645Z,1012.16
2022-11-29T10:51:37.665Z,1012.20
2022-11-29T10:52:37.620Z,1012.22
2022-11-29T10:53:37.628Z,1012.22
2022-11-29T10:54:37.602Z,1012.22
2022-11-29T10:55:37.587Z,1012.25
2022-11-29T10:56:37.608Z,1012.20
2022-11-29T10:57:37.572Z,1012.26
2022-11-29T10:58:37.533Z,1012.20
2022-11-29T10:59:37.549Z,1012.22
2022-11-29T11:00:37.532Z,1012.24
2022-11-29T11:01:37.603Z,1012.22
2022-11-29T11:02:37.489Z,1012.22
2022-11-29T11:03:37.481Z,1012.16
2022-11-29T11:04:37.483Z,1012.12
2022-11-29T11:05:37.499Z,1012.21
2022-11-29T11:06:37.490Z,1012.18
2022-11-29T11:07:37.513Z,1012.20
2022-11-29T11:08:37.449Z,1012.18
2022-11-29T11:09:37.444Z,1012.20
2022-11-29T11:10:37.428Z,1012.19
2022-11-29T11:11:37.438Z,1012.22
2022-11-29T11:12:37.395Z,1012.19
2022-11-29T11:13:37.395Z,1012.21
2022-11-29T11:14:37.359Z,1012.21
2022-11-29T11:15:37.362Z,1012.21
2022-11-29T11:16:37.930Z,1012.17
2022-11-29T11:17:37.368Z,1012.16
2022-11-29T11:18:37.331Z,1012.16
2022-11-29T11:19:37.321Z,1012.15
2022-11-29T11:20:37.309Z,1012.18
2022-11-29T11:21:37.351Z,1012.13
2022-11-29T11:22:37.289Z,1012.17
2022-11-29T11:23:41.385Z,1012.18
2022-11-29T11:24:38.283Z,1012.17
2022-11-29T11:25:37.262Z,1012.18
2022-11-29T11:26:37.276Z,1012.22
2022-11-29T11:27:37.255Z,1012.24
2022-11-29T11:28:37.238Z,1012.19
2022-11-29T11:29:37.227Z,1012.23
2022-11-29T11:30:37.252Z,1012.22
2022-11-29T11:31:37.208Z,1012.25
2022-11-29T11:32:37.180Z,1012.25
2022-11-29T11:33:37.160Z,1012.27
2022-11-29T11:34:37.140Z,1012.24
2022-11-29T11:35:37.159Z,1012.25
2022-11-29T11:36:37.158Z,1012.27
2022-11-29T11:37:37.136Z,1012.28
2022-11-29T11:38:37.107Z,1012.27
2022-11-29T11:39:37.093Z,1012.24
2022-11-29T11:40:37.109Z,1012.25
2022-11-29T11:41:37.158Z,1012.24
2022-11-29T11:42:37.061Z,1012.20
2022-11-29T11:43:37.038Z,1012.23
2022-11-29T11:44:52.573Z,1012.24
2022-11-29T11:45:38.043Z,1012.26
2022-11-29T11:46:37.130Z,1012.27
2022-11-29T11:47:37.006Z,1012.29
2022-11-29T11:48:37.009Z,1012.30
2022-11-29T11:49:36.984Z,1012.29
2022-11-29T11:50:36.965Z,1012.30
2022-11-29T11:51:37.000Z,1012.31
2022-11-29T11:52:40.520Z,1012.30
2022-11-29T11:53:36.947Z,1012.31
2022-11-29T11:54:36.966Z,1012.37
2022-11-29T11:55:36.940Z,1012.36
2022-11-29T11:56:36.946Z,1012.39
2022-11-29T11:57:36.897Z,1012.35
2022-11-29T11:58:36.872Z,1012.39
2022-11-29T11:59:36.899Z,1012.38
2022-11-29T12:01:02.375Z,1012.40
2022-11-29T12:01:37.896Z,1012.40
2022-11-29T12:02:36.937Z,1012.43
2022-11-29T12:03:36.885Z,1012.42
2022-11-29T12:04:36.810Z,1012.45
2022-11-29T12:05:36.797Z,1012.42
2022-11-29T12:06:36.779Z,1012.48